createdAt,value
2024-05-09T05:01:44.148Z,95775.00
2024-05-09T05:02:21.649Z,95775.00
2024-05-09T05:03:22.052Z,95773.00
2024-05-09T05:04:21.812Z,95776.00
2024-05-09T05:05:21.712Z,95777.00
2024-05-09T05:06:21.618Z,95774.00
2024-05-09T05:07:21.623Z,95775.00
2024-05-09T05:08:21.649Z,95773.00
2024-05-09T05:09:21.636Z,95775.00
2024-05-09T05:10:29.439Z,95775.00
2024-05-09T05:11:22.724Z,95772.00
2024-05-09T05:12:21.769Z,95771.00
2024-05-09T05:13:22.664Z,95774.00
2024-05-09T05:14:21.654Z,95772.00
2024-05-09T05:15:21.602Z,95774.00
2024-05-09T05:16:21.646Z,95775.00
2024-05-09T05:17:21.689Z,95777.00
2024-05-09T05:18:21.989Z,95778.00
2024-05-09T05:19:21.724Z,95778.00
2024-05-09T05:20:27.859Z,95780.00
2024-05-09T05:21:22.783Z,95782.00
2024-05-09T05:22:21.669Z,95781.00
2024-05-09T05:23:21.816Z,95780.00
2024-05-09T05:24:21.783Z,95779.00
2024-05-09T05:25:21.752Z,95779.00
2024-05-09T05:26:21.757Z,95780.00
2024-05-09T05:27:21.660Z,95780.00
2024-05-09T05:28:21.794Z,95779.00
2024-05-09T05:29:21.730Z,95780.00
2024-05-09T05:30:28.681Z,95780.00
2024-05-09T05:31:22.737Z,95780.00
2024-05-09T05:32:21.947Z,95780.00
2024-05-09T05:33:21.911Z,95782.00
2024-05-09T05:34:21.829Z,95782.00
2024-05-09T05:35:21.805Z,95785.00
2024-05-09T05:36:21.929Z,95784.00
2024-05-09T05:37:21.698Z,95784.00
2024-05-09T05:38:24.813Z,95785.00
2024-05-09T05:39:22.725Z,95785.00
2024-05-09T05:40:28.600Z,95787.00
2024-05-09T05:41:22.761Z,95787.00
2024-05-09T05:42:21.792Z,95787.00
2024-05-09T05:43:21.816Z,95788.00
2024-05-09T05:44:21.774Z,95788.00
2024-05-09T05:45:21.825Z,95787.00
2024-05-09T05:46:21.796Z,95788.00
2024-05-09T05:47:21.876Z,95790.00
2024-05-09T05:48:22.008Z,95788.00
2024-05-09T05:49:21.881Z,95787.00
2024-05-09T05:50:27.910Z,95787.00
2024-05-09T05:51:22.885Z,95788.00
2024-05-09T05:52:21.847Z,95789.00
2024-05-09T05:53:21.948Z,95787.00
2024-05-09T05:54:21.818Z,95787.00
2024-05-09T05:55:21.780Z,95788.00
2024-05-09T05:56:21.901Z,95786.00
2024-05-09T05:57:21.854Z,95784.00
2024-05-09T05:58:21.856Z,95787.00
2024-05-09T05:59:21.826Z,95785.00
2024-05-09T06:00:29.530Z,95784.00
2024-05-09T06:01:22.861Z,95786.00
2024-05-09T06:02:21.962Z,95784.00
2024-05-09T06:03:22.038Z,95782.00
2024-05-09T06:04:21.854Z,95783.00
2024-05-09T06:05:22.182Z,95783.00
2024-05-09T06:06:21.869Z,95780.00
2024-05-09T06:07:22.015Z,95782.00
2024-05-09T06:08:21.949Z,95779.00
2024-05-09T06:09:21.907Z,95777.00
2024-05-09T06:10:26.262Z,95777.00
2024-05-09T06:11:22.939Z,95778.00
2024-05-09T06:12:21.955Z,95778.00
2024-05-09T06:13:21.889Z,95778.00
2024-05-09T06:14:21.855Z,95778.00
2024-05-09T06:15:21.846Z,95777.00
2024-05-09T06:16:21.872Z,95776.00
2024-05-09T06:17:21.999Z,95777.00
2024-05-09T06:18:22.230Z,95777.00
2024-05-09T06:19:22.086Z,95775.00
2024-05-09T06:20:31.532Z,95777.00
2024-05-09T06:21:22.988Z,95775.00
2024-05-09T06:22:21.945Z,95776.00
2024-05-09T06:23:22.001Z,95774.00
2024-05-09T06:24:21.902Z,95773.00
2024-05-09T06:25:21.923Z,95772.00
2024-05-09T06:26:22.023Z,95771.00
2024-05-09T06:27:21.938Z,95771.00
2024-05-09T06:28:21.974Z,95771.00
2024-05-09T06:29:22.023Z,95771.00
2024-05-09T06:30:29.919Z,95771.00
2024-05-09T06:31:22.943Z,95771.00
2024-05-09T06:32:22.176Z,95771.00
2024-05-09T06:33:22.186Z,95770.00
2024-05-09T06:34:22.040Z,95770.00
2024-05-09T06:35:22.005Z,95769.00
2024-05-09T06:36:21.950Z,95770.00
2024-05-09T06:37:22.011Z,95769.00
2024-05-09T06:38:22.109Z,95769.00
2024-05-09T06:39:22.012Z,95766.00
2024-05-09T06:40:25.871Z,95765.00
2024-05-09T06:41:23.008Z,95765.00
2024-05-09T06:42:21.955Z,95762.00
2024-05-09T06:43:22.026Z,95764.00
2024-05-09T06:44:22.050Z,95765.00
2024-05-09T06:45:22.016Z,95763.00
2024-05-09T06:46:21.952Z,95765.00
2024-05-09T06:47:22.101Z,95764.00
2024-05-09T06:48:22.727Z,95763.00
2024-05-09T06:49:22.109Z,95766.00
2024-05-09T06:50:24.424Z,95771.00
2024-05-09T06:51:23.049Z,95769.00
2024-05-09T06:52:21.954Z,95770.00
2024-05-09T06:53:22.054Z,95771.00
2024-05-09T06:54:21.972Z,95772.00
2024-05-09T06:55:21.969Z,95771.00
2024-05-09T06:56:22.039Z,95774.00
2024-05-09T06:57:21.985Z,95772.00
2024-05-09T06:58:21.984Z,95772.00
2024-05-09T06:59:22.000Z,95771.00
2024-05-09T07:00:27.759Z,95767.00
2024-05-09T07:01:23.079Z,95768.00
2024-05-09T07:02:22.077Z,95765.00
2024-05-09T07:03:22.137Z,95767.00
2024-05-09T07:04:22.080Z,95763.00
2024-05-09T07:05:22.137Z,95768.00
2024-05-09T07:06:22.017Z,95767.00
2024-05-09T07:07:22.003Z,95767.00
2024-05-09T07:08:22.086Z,95771.00
2024-05-09T07:09:22.012Z,95770.00
2024-05-09T07:10:28.871Z,95769.00
2024-05-09T07:11:23.130Z,95770.00
2024-05-09T07:12:22.073Z,95769.00
2024-05-09T07:13:22.027Z,95768.00
2024-05-09T07:14:22.124Z,95769.00
2024-05-09T07:15:22.081Z,95766.00
2024-05-09T07:16:22.084Z,95768.00
2024-05-09T07:17:22.180Z,95767.00
2024-05-09T07:18:22.218Z,95766.00
2024-05-09T07:19:22.163Z,95765.00
2024-05-09T07:20:31.664Z,95766.00
2024-05-09T07:21:23.144Z,95764.00
2024-05-09T07:22:22.084Z,95763.00
2024-05-09T07:23:22.174Z,95761.00
2024-05-09T07:24:22.093Z,95759.00
2024-05-09T07:25:22.074Z,95756.00
2024-05-09T07:26:22.128Z,95753.00
2024-05-09T07:27:22.102Z,95756.00
2024-05-09T07:28:22.113Z,95755.00
2024-05-09T07:29:22.102Z,95754.00
2024-05-09T07:30:27.612Z,95754.00
2024-05-09T07:31:23.161Z,95754.00
2024-05-09T07:32:22.346Z,95752.00
2024-05-09T07:33:24.704Z,95750.00
2024-05-09T07:34:22.371Z,95750.00
2024-05-09T07:35:22.292Z,95751.00
2024-05-09T07:36:22.158Z,95755.00
2024-05-09T07:37:22.171Z,95754.00
2024-05-09T07:38:22.226Z,95756.00
2024-05-09T07:39:22.164Z,95753.00
2024-05-09T07:40:31.715Z,95755.00
2024-05-09T07:41:23.214Z,95756.00
2024-05-09T07:42:22.180Z,95752.00
2024-05-09T07:43:22.198Z,95753.00
2024-05-09T07:44:22.214Z,95753.00
2024-05-09T07:45:40.539Z,95752.00
2024-05-09T07:47:14.657Z,95752.00
2024-05-09T07:48:32.144Z,95752.00
2024-05-09T07:53:30.369Z,95744.00
2024-05-09T07:53:39.554Z,95744.00
2024-05-09T07:54:23.380Z,95743.00
2024-05-09T07:55:22.302Z,95745.00
2024-05-09T07:56:23.811Z,95742.00
2024-05-09T07:57:22.313Z,95744.00
2024-05-09T07:58:22.214Z,95742.00
2024-05-09T07:59:22.216Z,95743.00
2024-05-09T08:00:29.521Z,95743.00
2024-05-09T08:01:23.305Z,95743.00
2024-05-09T08:02:22.393Z,95742.00
2024-05-09T08:03:22.313Z,95746.00
2024-05-09T08:04:25.097Z,95745.00
2024-05-09T08:05:22.377Z,95742.00
2024-05-09T08:06:22.263Z,95741.00
2024-05-09T08:07:22.310Z,95741.00
2024-05-09T08:08:22.243Z,95741.00
2024-05-09T08:09:22.231Z,95742.00
2024-05-09T08:10:27.325Z,95738.00
2024-05-09T08:11:23.273Z,95736.00
2024-05-09T08:12:22.239Z,95735.00
2024-05-09T08:13:22.320Z,95734.00
2024-05-09T08:14:22.247Z,95736.00
2024-05-09T08:15:22.267Z,95733.00
2024-05-09T08:16:22.467Z,95731.00
2024-05-09T08:17:22.335Z,95736.00
2024-05-09T08:18:22.317Z,95735.00
2024-05-09T08:19:22.334Z,95734.00
2024-05-09T08:20:30.310Z,95733.00
2024-05-09T08:21:23.258Z,95734.00
2024-05-09T08:22:22.253Z,95732.00
2024-05-09T08:23:22.247Z,95732.00
2024-05-09T08:24:22.236Z,95732.00
2024-05-09T08:25:22.330Z,95732.00
2024-05-09T08:26:22.289Z,95730.00
2024-05-09T08:27:22.295Z,95730.00
2024-05-09T08:28:22.335Z,95731.00
2024-05-09T08:29:22.279Z,95730.00
2024-05-09T08:30:30.001Z,95727.00
2024-05-09T08:31:23.481Z,95725.00
2024-05-09T08:32:22.386Z,95726.00
2024-05-09T08:33:22.395Z,95724.00
2024-05-09T08:34:22.411Z,95726.00
2024-05-09T08:35:22.327Z,95725.00
2024-05-09T08:36:22.356Z,95725.00
2024-05-09T08:37:26.009Z,95724.00
2024-05-09T08:38:23.380Z,95728.00
2024-05-09T08:39:22.348Z,95725.00
2024-05-09T08:40:30.657Z,95729.00
2024-05-09T08:41:23.362Z,95727.00
2024-05-09T08:42:22.343Z,95727.00
2024-05-09T08:43:22.484Z,95726.00
2024-05-09T08:44:22.348Z,95725.00
2024-05-09T08:45:22.330Z,95725.00
2024-05-09T08:46:22.391Z,95724.00
2024-05-09T08:47:22.423Z,95722.00
2024-05-09T08:48:22.433Z,95722.00
2024-05-09T08:49:22.402Z,95721.00
2024-05-09T08:50:31.986Z,95720.00
2024-05-09T08:51:23.472Z,95721.00
2024-05-09T08:52:22.476Z,95717.00
2024-05-09T08:53:22.477Z,95719.00
2024-05-09T08:54:22.493Z,95715.00
2024-05-09T08:55:22.473Z,95719.00
2024-05-09T08:56:22.473Z,95719.00
2024-05-09T08:57:22.484Z,95716.00
2024-05-09T08:58:22.527Z,95718.00
2024-05-09T08:59:22.490Z,95715.00
2024-05-09T09:00:29.806Z,95717.00
2024-05-09T09:01:23.683Z,95718.00
2024-05-09T09:02:22.767Z,95718.00
2024-05-09T09:03:22.615Z,95717.00
2024-05-09T09:04:22.671Z,95713.00
2024-05-09T09:05:22.627Z,95715.00
2024-05-09T09:06:22.561Z,95714.00
2024-05-09T09:07:22.603Z,95710.00
2024-05-09T09:08:22.544Z,95712.00
2024-05-09T09:09:22.570Z,95710.00
2024-05-09T09:10:29.650Z,95709.00
2024-05-09T09:11:23.645Z,95706.00
2024-05-09T09:12:22.696Z,95710.00
2024-05-09T09:13:22.694Z,95710.00
2024-05-09T09:14:22.605Z,95707.00
2024-05-09T09:15:22.715Z,95709.00
2024-05-09T09:16:22.818Z,95707.00
2024-05-09T09:17:22.728Z,95705.00
2024-05-09T09:18:22.755Z,95705.00
2024-05-09T09:19:22.813Z,95707.00
2024-05-09T09:20:28.772Z,95703.00
2024-05-09T09:21:23.613Z,95700.00
2024-05-09T09:22:22.616Z,95703.00
2024-05-09T09:23:22.608Z,95701.00
2024-05-09T09:24:22.614Z,95697.00
2024-05-09T09:25:22.623Z,95698.00
2024-05-09T09:26:22.654Z,95696.00
2024-05-09T09:27:22.651Z,95696.00
2024-05-09T09:28:30.122Z,95693.00
2024-05-09T09:29:29.942Z,95694.00
2024-05-09T09:30:36.510Z,95692.00
2024-05-09T09:31:31.150Z,95694.00
2024-05-09T09:32:29.993Z,95693.00
2024-05-09T09:33:30.053Z,95691.00
2024-05-09T09:34:30.058Z,95693.00
2024-05-09T09:35:29.936Z,95695.00
2024-05-09T09:36:29.996Z,95692.00
2024-05-09T09:37:29.973Z,95689.00
2024-05-09T09:38:29.962Z,95690.00
2024-05-09T09:39:30.018Z,95688.00
2024-05-09T09:40:32.923Z,95685.00
2024-05-09T09:41:29.984Z,95683.00
2024-05-09T09:42:30.064Z,95681.00
2024-05-09T09:43:30.007Z,95680.00
2024-05-09T09:44:30.008Z,95679.00
2024-05-09T09:45:30.084Z,95679.00
2024-05-09T09:46:30.176Z,95679.00
2024-05-09T09:47:30.083Z,95675.00
2024-05-09T09:48:34.844Z,95676.00
2024-05-09T09:49:30.052Z,95674.00
2024-05-09T09:50:34.424Z,95671.00
2024-05-09T09:51:31.012Z,95669.00
2024-05-09T09:52:30.057Z,95669.00
2024-05-09T09:53:30.019Z,95669.00
2024-05-09T09:54:30.032Z,95666.00
2024-05-09T09:55:30.027Z,95666.00
2024-05-09T09:56:30.018Z,95667.00
2024-05-09T09:57:30.070Z,95666.00
2024-05-09T09:58:30.164Z,95664.00
2024-05-09T09:59:30.038Z,95663.00
2024-05-09T10:00:33.139Z,95661.00
2024-05-09T10:01:30.054Z,95660.00
2024-05-09T10:02:30.107Z,95660.00
2024-05-09T10:03:30.158Z,95660.00
2024-05-09T10:04:30.110Z,95658.00
2024-05-09T10:05:30.442Z,95657.00
2024-05-09T10:06:30.067Z,95656.00
2024-05-09T10:07:30.039Z,95657.00
2024-05-09T10:08:30.034Z,95657.00
2024-05-09T10:09:30.048Z,95654.00
2024-05-09T10:10:32.673Z,95652.00
2024-05-09T10:11:30.226Z,95650.00
2024-05-09T10:12:30.174Z,95648.00
2024-05-09T10:13:30.068Z,95645.00
2024-05-09T10:14:30.034Z,95641.00
2024-05-09T10:15:30.135Z,95638.00
2024-05-09T10:16:30.103Z,95638.00
2024-05-09T10:17:30.076Z,95635.00
2024-05-09T10:18:31.985Z,95632.00
2024-05-09T10:19:30.172Z,95630.00
2024-05-09T10:20:32.678Z,95633.00
2024-05-09T10:21:30.101Z,95631.00
2024-05-09T10:22:30.047Z,95628.00
2024-05-09T10:23:30.059Z,95628.00
2024-05-09T10:24:30.093Z,95630.00
2024-05-09T10:25:30.107Z,95629.00
2024-05-09T10:26:30.029Z,95624.00
2024-05-09T10:27:30.058Z,95624.00
2024-05-09T10:28:30.061Z,95624.00
2024-05-09T10:29:30.043Z,95625.00
2024-05-09T10:30:35.747Z,95624.00
2024-05-09T10:31:31.090Z,95622.00
2024-05-09T10:32:30.106Z,95619.00
2024-05-09T10:33:30.172Z,95617.00
2024-05-09T10:34:30.178Z,95619.00
2024-05-09T10:35:30.085Z,95620.00
2024-05-09T10:36:30.112Z,95618.00
2024-05-09T10:37:30.084Z,95615.00
2024-05-09T10:38:30.066Z,95616.00
2024-05-09T10:39:30.118Z,95614.00
2024-05-09T10:40:31.741Z,95614.00
2024-05-09T10:41:30.069Z,95609.00
2024-05-09T10:42:30.178Z,95607.00
2024-05-09T10:43:30.191Z,95607.00
2024-05-09T10:44:30.163Z,95609.00
2024-05-09T10:45:30.254Z,95606.00
2024-05-09T10:46:30.319Z,95607.00
2024-05-09T10:47:30.436Z,95607.00
2024-05-09T10:48:30.608Z,95610.00
2024-05-09T10:49:30.581Z,95605.00
2024-05-09T10:50:34.167Z,95601.00
2024-05-09T10:51:30.746Z,95603.00
2024-05-09T10:52:30.681Z,95601.00
2024-05-09T10:53:30.671Z,95599.00
2024-05-09T10:54:30.726Z,95598.00
2024-05-09T10:55:30.712Z,95597.00
2024-05-09T10:56:30.666Z,95596.00
2024-05-09T10:57:30.683Z,95595.00
2024-05-09T10:58:30.654Z,95593.00
2024-05-09T10:59:30.645Z,95591.00
2024-05-09T11:00:35.660Z,95591.00
2024-05-09T11:01:31.848Z,95588.00
2024-05-09T11:02:30.846Z,95585.00
2024-05-09T11:03:30.876Z,95585.00
2024-05-09T11:04:30.704Z,95581.00
2024-05-09T11:05:30.730Z,95580.00
2024-05-09T11:06:30.688Z,95580.00
2024-05-09T11:07:30.766Z,95582.00
2024-05-09T11:08:30.666Z,95582.00
2024-05-09T11:09:30.738Z,95581.00
2024-05-09T11:10:34.048Z,95580.00
2024-05-09T11:11:30.673Z,95579.00
2024-05-09T11:12:30.695Z,95574.00
2024-05-09T11:13:30.823Z,95572.00
2024-05-09T11:14:30.654Z,95570.00
2024-05-09T11:15:30.777Z,95568.00
2024-05-09T11:16:30.757Z,95567.00
2024-05-09T11:17:30.774Z,95571.00
2024-05-09T11:18:34.660Z,95567.00
2024-05-09T11:19:31.765Z,95565.00
2024-05-09T11:20:34.792Z,95563.00
2024-05-09T11:21:30.713Z,95562.00
2024-05-09T11:22:30.696Z,95559.00
2024-05-09T11:23:30.918Z,95556.00
2024-05-09T11:24:30.762Z,95558.00
2024-05-09T11:25:30.681Z,95558.00
2024-05-09T11:26:30.685Z,95558.00
2024-05-09T11:27:30.709Z,95554.00
2024-05-09T11:28:30.675Z,95552.00
2024-05-09T11:29:30.696Z,95554.00
2024-05-09T11:30:32.333Z,95551.00
2024-05-09T11:31:30.818Z,95551.00
2024-05-09T11:32:30.864Z,95549.00
2024-05-09T11:33:30.779Z,95547.00
2024-05-09T11:34:30.765Z,95546.00
2024-05-09T11:35:30.691Z,95548.00
2024-05-09T11:36:30.757Z,95546.00
2024-05-09T11:37:31.347Z,95545.00
2024-05-09T11:38:30.706Z,95543.00
2024-05-09T11:39:30.769Z,95544.00
2024-05-09T11:40:34.251Z,95543.00
2024-05-09T11:41:30.741Z,95537.00
2024-05-09T11:42:30.841Z,95541.00
2024-05-09T11:43:30.881Z,95538.00
2024-05-09T11:44:30.743Z,95537.00
2024-05-09T11:45:30.794Z,95539.00
2024-05-09T11:46:30.756Z,95537.00
2024-05-09T11:47:30.845Z,95536.00
2024-05-09T11:48:30.974Z,95536.00
2024-05-09T11:49:30.852Z,95532.00
2024-05-09T11:50:35.293Z,95532.00
2024-05-09T11:51:31.787Z,95530.00
2024-05-09T11:52:30.755Z,95529.00
2024-05-09T11:53:30.747Z,95527.00
2024-05-09T11:54:30.826Z,95523.00
2024-05-09T11:55:30.934Z,95524.00
2024-05-09T11:56:30.776Z,95523.00
2024-05-09T11:57:30.836Z,95525.00
2024-05-09T11:58:30.791Z,95524.00
2024-05-09T11:59:30.800Z,95524.00
2024-05-09T12:00:36.621Z,95526.00
2024-05-09T12:01:32.114Z,95522.00
2024-05-09T12:02:30.879Z,95521.00
2024-05-09T12:03:30.986Z,95518.00
2024-05-09T12:04:30.898Z,95520.00
2024-05-09T12:05:30.962Z,95522.00
2024-05-09T12:06:30.902Z,95526.00
2024-05-09T12:07:30.832Z,95525.00
2024-05-09T12:08:30.814Z,95519.00
2024-05-09T12:09:30.856Z,95517.00
2024-05-09T12:10:33.422Z,95520.00
2024-05-09T12:11:30.896Z,95511.00
2024-05-09T12:12:30.904Z,95513.00
2024-05-09T12:13:30.886Z,95510.00
2024-05-09T12:14:30.801Z,95509.00
2024-05-09T12:15:30.880Z,95513.00
2024-05-09T12:16:30.921Z,95512.00
2024-05-09T12:17:30.927Z,95513.00
2024-05-09T12:18:30.918Z,95509.00
2024-05-09T12:19:30.861Z,95510.00
2024-05-09T12:20:36.243Z,95511.00
2024-05-09T12:21:31.883Z,95510.00
2024-05-09T12:22:30.825Z,95504.00
2024-05-09T12:23:30.827Z,95509.00
2024-05-09T12:24:30.886Z,95507.00
2024-05-09T12:25:30.828Z,95508.00
2024-05-09T12:26:30.848Z,95510.00
2024-05-09T12:27:30.915Z,95503.00
2024-05-09T12:28:30.883Z,95505.00
2024-05-09T12:29:30.850Z,95508.00
2024-05-09T12:30:36.445Z,95507.00
2024-05-09T12:31:31.884Z,95508.00
2024-05-09T12:32:30.940Z,95509.00
2024-05-09T12:33:30.967Z,95507.00
2024-05-09T12:34:30.859Z,95505.00
2024-05-09T12:35:30.862Z,95505.00
2024-05-09T12:36:30.917Z,95510.00
2024-05-09T12:37:30.846Z,95506.00
2024-05-09T12:38:30.846Z,95507.00
2024-05-09T12:39:30.911Z,95505.00
2024-05-09T12:40:35.838Z,95505.00
2024-05-09T12:41:31.866Z,95507.00
2024-05-09T12:42:33.264Z,95508.00
2024-05-09T12:43:31.015Z,95508.00
2024-05-09T12:44:30.867Z,95508.00
2024-05-09T12:45:30.980Z,95507.00
2024-05-09T12:46:30.920Z,95502.00
2024-05-09T12:47:30.974Z,95504.00
2024-05-09T12:48:30.959Z,95504.00
2024-05-09T12:49:31.004Z,95503.00
2024-05-09T12:50:33.159Z,95503.00
2024-05-09T12:51:30.949Z,95505.00
2024-05-09T12:52:30.882Z,95504.00
2024-05-09T12:53:30.917Z,95502.00
2024-05-09T12:54:30.910Z,95499.00
2024-05-09T12:55:37.254Z,95504.00
2024-05-09T12:56:31.903Z,95502.00
2024-05-09T12:57:30.960Z,95499.00
2024-05-09T12:58:30.905Z,95503.00
2024-05-09T12:59:30.903Z,95500.00
2024-05-09T13:00:33.841Z,95499.00
2024-05-09T13:01:30.994Z,95500.00
2024-05-09T13:02:31.069Z,95499.00
2024-05-09T13:03:31.182Z,95501.00
2024-05-09T13:04:31.069Z,95501.00
2024-05-09T13:05:31.014Z,95502.00
2024-05-09T13:06:30.938Z,95497.00
2024-05-09T13:07:30.898Z,95499.00
2024-05-09T13:08:30.898Z,95497.00
2024-05-09T13:09:31.022Z,95494.00
2024-05-09T13:10:32.851Z,95494.00
2024-05-09T13:11:31.195Z,95495.00
2024-05-09T13:12:31.234Z,95492.00
2024-05-09T13:13:31.212Z,95498.00
2024-05-09T13:14:31.236Z,95492.00
2024-05-09T13:15:31.657Z,95493.00
2024-05-09T13:16:31.383Z,95488.00
2024-05-09T13:17:31.573Z,95488.00
2024-05-09T13:18:31.490Z,95483.00
2024-05-09T13:19:31.476Z,95480.00
2024-05-09T13:20:34.048Z,95483.00
2024-05-09T13:21:31.562Z,95486.00
2024-05-09T13:22:31.458Z,95482.00
2024-05-09T13:23:31.483Z,95483.00
2024-05-09T13:24:31.528Z,95482.00
2024-05-09T13:25:31.482Z,95478.00
2024-05-09T13:26:31.470Z,95487.00
2024-05-09T13:27:31.451Z,95478.00
2024-05-09T13:28:31.650Z,95480.00
2024-05-09T13:29:31.470Z,95478.00
2024-05-09T13:30:38.927Z,95475.00
2024-05-09T13:31:32.681Z,95478.00
2024-05-09T13:32:31.522Z,95475.00
2024-05-09T13:33:31.726Z,95478.00
2024-05-09T13:34:31.519Z,95476.00
2024-05-09T13:35:31.494Z,95476.00
2024-05-09T13:36:31.563Z,95479.00
2024-05-09T13:37:31.487Z,95476.00
2024-05-09T13:38:31.506Z,95472.00
2024-05-09T13:39:31.513Z,95472.00
2024-05-09T13:40:34.627Z,95470.00
2024-05-09T13:41:31.512Z,95472.00
2024-05-09T13:42:31.556Z,95472.00
2024-05-09T13:43:31.614Z,95468.00
2024-05-09T13:44:31.513Z,95469.00
2024-05-09T13:45:31.598Z,95465.00
2024-05-09T13:46:31.552Z,95465.00
2024-05-09T13:47:31.581Z,95462.00
2024-05-09T13:48:31.650Z,95460.00
2024-05-09T13:49:31.505Z,95456.00
2024-05-09T13:50:35.458Z,95456.00
2024-05-09T13:51:32.567Z,95456.00
2024-05-09T13:52:31.535Z,95456.00
2024-05-09T13:53:31.514Z,95458.00
2024-05-09T13:54:31.543Z,95457.00
2024-05-09T13:55:31.561Z,95457.00
2024-05-09T13:56:31.522Z,95461.00
2024-05-09T13:57:31.577Z,95455.00
2024-05-09T13:58:31.594Z,95457.00
2024-05-09T13:59:31.542Z,95459.00
2024-05-09T14:00:42.377Z,95459.00
2024-05-09T14:01:32.675Z,95462.00
2024-05-09T14:02:31.634Z,95458.00
2024-05-09T14:03:31.748Z,95460.00
2024-05-09T14:04:31.638Z,95461.00
2024-05-09T14:05:31.616Z,95459.00
2024-05-09T14:06:31.674Z,95460.00
2024-05-09T14:07:31.538Z,95461.00
2024-05-09T14:08:31.556Z,95458.00
2024-05-09T14:09:31.595Z,95458.00
2024-05-09T14:10:32.453Z,95461.00
2024-05-09T14:11:31.674Z,95461.00
2024-05-09T14:12:31.629Z,95458.00
2024-05-09T14:13:31.667Z,95458.00
2024-05-09T14:14:31.697Z,95456.00
2024-05-09T14:15:31.790Z,95456.00
2024-05-09T14:16:31.956Z,95457.00
2024-05-09T14:17:32.054Z,95460.00
2024-05-09T14:18:32.039Z,95461.00
2024-05-09T14:19:31.992Z,95457.00
2024-05-09T14:20:32.680Z,95455.00
2024-05-09T14:21:32.078Z,95454.00
2024-05-09T14:22:32.121Z,95455.00
2024-05-09T14:23:32.187Z,95458.00
2024-05-09T14:24:32.226Z,95457.00
2024-05-09T14:25:33.089Z,95456.00
2024-05-09T14:26:32.317Z,95458.00
2024-05-09T14:27:32.411Z,95457.00
2024-05-09T14:28:32.637Z,95465.00
2024-05-09T14:29:32.471Z,95456.00
2024-05-09T14:30:37.089Z,95458.00
2024-05-09T14:31:36.951Z,95459.00
2024-05-09T14:32:33.678Z,95459.00
2024-05-09T14:33:32.679Z,95455.00
2024-05-09T14:34:32.631Z,95457.00
2024-05-09T14:35:32.553Z,95456.00
2024-05-09T14:36:32.643Z,95456.00
2024-05-09T14:37:34.139Z,95460.00
2024-05-09T14:38:32.544Z,95458.00
2024-05-09T14:39:32.609Z,95458.00
2024-05-09T14:40:40.342Z,95458.00
2024-05-09T14:41:33.553Z,95460.00
2024-05-09T14:42:32.656Z,95458.00
2024-05-09T14:43:32.653Z,95454.00
2024-05-09T14:44:32.572Z,95458.00
2024-05-09T14:45:32.588Z,95455.00
2024-05-09T14:46:32.615Z,95456.00
2024-05-09T14:47:32.659Z,95460.00
2024-05-09T14:48:32.915Z,95460.00
2024-05-09T14:49:32.603Z,95456.00
2024-05-09T14:50:37.152Z,95456.00
2024-05-09T14:51:33.661Z,95457.00
2024-05-09T14:52:32.614Z,95458.00
2024-05-09T14:53:32.612Z,95457.00
2024-05-09T14:54:32.687Z,95456.00
2024-05-09T14:55:32.661Z,95459.00
2024-05-09T14:56:32.615Z,95459.00
2024-05-09T14:57:32.655Z,95457.00
2024-05-09T14:58:32.664Z,95458.00
2024-05-09T14:59:32.621Z,95458.00
2024-05-09T15:00:35.764Z,95457.00
2024-05-09T15:01:32.751Z,95454.00
2024-05-09T15:02:32.854Z,95460.00
2024-05-09T15:03:32.832Z,95458.00
2024-05-09T15:04:32.766Z,95458.00
2024-05-09T15:05:32.708Z,95453.00
2024-05-09T15:06:32.724Z,95456.00
2024-05-09T15:07:32.664Z,95453.00
2024-05-09T15:08:37.328Z,95453.00
2024-05-09T15:09:32.762Z,95452.00
2024-05-09T15:10:35.745Z,95451.00
2024-05-09T15:11:32.721Z,95449.00
2024-05-09T15:12:32.752Z,95450.00
2024-05-09T15:13:32.901Z,95448.00
2024-05-09T15:14:32.692Z,95448.00
2024-05-09T15:15:32.702Z,95449.00
2024-05-09T15:16:32.747Z,95444.00
2024-05-09T15:17:32.780Z,95446.00
2024-05-09T15:18:32.805Z,95444.00
2024-05-09T15:19:32.934Z,95449.00
2024-05-09T15:20:35.942Z,95448.00
2024-05-09T15:21:32.733Z,95446.00
2024-05-09T15:22:32.690Z,95444.00
2024-05-09T15:23:32.683Z,95444.00
2024-05-09T15:24:32.743Z,95443.00
2024-05-09T15:25:32.706Z,95442.00
2024-05-09T15:26:32.698Z,95445.00
2024-05-09T15:27:32.754Z,95444.00
2024-05-09T15:28:32.760Z,95440.00
2024-05-09T15:29:32.706Z,95441.00
2024-05-09T15:30:34.237Z,95439.00
2024-05-09T15:31:32.798Z,95442.00
2024-05-09T15:32:32.867Z,95440.00
2024-05-09T15:33:32.807Z,95438.00
2024-05-09T15:34:33.019Z,95436.00
2024-05-09T15:35:32.811Z,95437.00
2024-05-09T15:36:32.959Z,95438.00
2024-05-09T15:37:32.969Z,95436.00
2024-05-09T15:38:32.973Z,95434.00
2024-05-09T15:39:33.065Z,95434.00
2024-05-09T15:40:39.350Z,95430.00
2024-05-09T15:41:34.092Z,95432.00
2024-05-09T15:42:33.156Z,95434.00
2024-05-09T15:43:33.180Z,95433.00
2024-05-09T15:44:33.070Z,95432.00
2024-05-09T15:45:33.345Z,95432.00
2024-05-09T15:46:33.175Z,95435.00
2024-05-09T15:47:33.172Z,95432.00
2024-05-09T15:48:33.333Z,95433.00
2024-05-09T15:49:33.328Z,95432.00
2024-05-09T15:50:38.636Z,95432.00
2024-05-09T15:51:34.160Z,95430.00
2024-05-09T15:52:33.128Z,95430.00
2024-05-09T15:53:33.131Z,95429.00
2024-05-09T15:54:33.164Z,95429.00
2024-05-09T15:55:33.147Z,95432.00
2024-05-09T15:56:33.128Z,95432.00
2024-05-09T15:57:33.249Z,95432.00
2024-05-09T15:58:33.136Z,95434.00
2024-05-09T15:59:33.187Z,95433.00
2024-05-09T16:00:38.059Z,95435.00
2024-05-09T16:01:34.313Z,95434.00
2024-05-09T16:02:33.358Z,95433.00
2024-05-09T16:03:33.497Z,95433.00
2024-05-09T16:04:33.316Z,95429.00
2024-05-09T16:05:33.548Z,95429.00
2024-05-09T16:06:33.213Z,95427.00
2024-05-09T16:07:33.183Z,95428.00
2024-05-09T16:08:33.203Z,95430.00
2024-05-09T16:09:33.250Z,95431.00
2024-05-09T16:10:34.685Z,95430.00
2024-05-09T16:11:33.240Z,95428.00
2024-05-09T16:12:33.318Z,95428.00
2024-05-09T16:13:33.262Z,95430.00
2024-05-09T16:14:33.271Z,95425.00
2024-05-09T16:15:33.385Z,95430.00
2024-05-09T16:16:33.462Z,95429.00
2024-05-09T16:17:33.530Z,95427.00
2024-05-09T16:18:33.556Z,95427.00
2024-05-09T16:19:33.508Z,95426.00
2024-05-09T16:20:39.241Z,95428.00
2024-05-09T16:21:34.656Z,95427.00
2024-05-09T16:22:33.595Z,95430.00
2024-05-09T16:23:33.618Z,95429.00
2024-05-09T16:25:07.090Z,95431.00
2024-05-09T16:26:06.944Z,95428.00
2024-05-09T16:27:06.948Z,95430.00
2024-05-09T16:28:10.023Z,95429.00
2024-05-09T16:29:06.934Z,95431.00
2024-05-09T16:30:09.302Z,95428.00
2024-05-09T16:31:07.976Z,95432.00
2024-05-09T16:32:06.973Z,95428.00
2024-05-09T16:33:07.163Z,95428.00
2024-05-09T16:34:07.005Z,95429.00
2024-05-09T16:35:07.050Z,95430.00
2024-05-09T16:36:06.963Z,95431.00
2024-05-09T16:37:06.979Z,95433.00
2024-05-09T16:38:06.985Z,95430.00
2024-05-09T16:39:07.005Z,95427.00
2024-05-09T16:40:09.941Z,95428.00
2024-05-09T16:41:08.019Z,95429.00
2024-05-09T16:42:07.069Z,95434.00
2024-05-09T16:43:07.447Z,95428.00
2024-05-09T16:44:06.990Z,95428.00
2024-05-09T16:45:06.989Z,95430.00
2024-05-09T16:46:07.042Z,95429.00
2024-05-09T16:47:07.001Z,95430.00
2024-05-09T16:48:07.258Z,95429.00
2024-05-09T16:49:07.053Z,95428.00
2024-05-09T16:50:08.639Z,95427.00